Accueil
METAR-TAF:

METAR-TAF

Aéroports :

Aéroport Otto-Lilienthal de Berlin-Tegel

Berlin, Allemagne

latitude: 52-34N, longitude: 013-19E, altitude: 37 m

Observation

Le bulletin a été fait il y a 17 minutes, à 07:50 UTC
Vent 9 kt de est, variant entre nord/nord-est et est/sud-est
Température 1°C
Humidité 75%
Pression 1021 hPa
Visibilité 10 km ou plus
Nuages fragmentés à une hauteur de 1700 ft

METAR: EDDT 210750Z 08009KT 030V120 9999 BKN017 01/M03 Q1021 TEMPO BKN014

Heure: 09:07 (08:07 UTC)

Prévision

Le bulletin a été fait il y a 3 heures et 7 minutes, à 05:00 UTC
Prévision valable du 21 à 06 UTC au 22 à 06 UTC
Vent 10 kt de est/nord-est
Visibilité 10 km ou plus
Nuages fragmentés à une hauteur de 2000 ft
Probabilité 40% :
Temporairement
du 21 à 06 UTC au 22 à 06 UTC
Nuages fragmentés à une hauteur de 1200 ft

TAF: EDDT 210500Z 2106/2206 07010KT 9999 BKN020 PROB40 TEMPO 2106/2206 BKN012

Observations et prévisions météorologiques de plus de 4000 aéroports (messages METAR et TAF).

Les stations disponibles sont représentées par des disques jaunes et rouges sur la carte.

Passer la souris dessus pour voir le nom de la station.

Cliquer dessus pour voir les observations et prévisions météorologiques.

Pour changer de carte: cliquez sur les boutons verts avec une croix noire pour zoomer, sur le bouton vert avec un tiret pour effectuer un zoom arrière, ou sur les flèches vertes pour les cartes adjacentes.


METAR-TAF: